Time,TemperatureF,DewpointF,PressureIn,WindDirection,WindDirectionDegrees,WindSpeedMPH,WindSpeedGustMPH,Humidity,HourlyPrecipIn,Conditions,Clouds,dailyrainin,SoftwareType,DateUTC
2013-07-11 00:01:00,66.0,44.0,-100.00,North,6,8.0,19.0,45,-99.99,,,-99.99,,2013-07-11 00:01:00,
2013-07-11 00:11:00,67.0,46.0,-100.00,North,2,8.0,19.0,47,-99.99,,,-99.99,,2013-07-11 00:11:00,
2013-07-11 00:32:00,67.0,45.0,-100.00,NNE,24,9.0,20.0,45,-99.99,,,-99.99,,2013-07-11 00:32:00,
2013-07-11 00:42:00,68.0,46.0,-100.00,North,10,10.0,23.0,46,-99.99,,,-99.99,,2013-07-11 00:42:00,
2013-07-11 00:52:00,68.0,46.0,-100.00,North,10,10.0,23.0,46,-99.99,,,-99.99,,2013-07-11 00:52:00,
2013-07-11 01:01:00,68.0,46.0,-100.00,North,7,8.0,19.0,45,-99.99,,,-99.99,,2013-07-11 01:01:00,
2013-07-11 01:11:00,68.0,46.0,-100.00,North,7,8.0,19.0,45,-99.99,,,-99.99,,2013-07-11 01:11:00,
2013-07-11 01:22:00,68.0,46.0,-100.00,North,7,8.0,19.0,45,-99.99,,,-99.99,,2013-07-11 01:22:00,
2013-07-11 01:32:00,66.0,46.0,-100.00,North,349,3.0,18.0,49,-99.99,,,-99.99,,2013-07-11 01:32:00,
2013-07-11 01:43:00,69.0,47.0,-100.00,NNE,24,11.0,20.0,46,-99.99,,,-99.99,,2013-07-11 01:43:00,
2013-07-11 01:52:00,69.0,47.0,-100.00,NNE,24,11.0,20.0,46,-99.99,,,-99.99,,2013-07-11 01:52:00,
2013-07-11 02:01:00,69.0,47.0,-100.00,NNE,24,11.0,20.0,46,-99.99,,,-99.99,,2013-07-11 02:01:00,
2013-07-11 02:11:00,66.0,47.0,-100.00,North,4,6.0,14.0,51,-99.99,,,-99.99,,2013-07-11 02:11:00,
2013-07-11 02:22:00,66.0,47.0,-100.00,North,4,6.0,14.0,51,-99.99,,,-99.99,,2013-07-11 02:22:00,
2013-07-11 02:32:00,67.0,47.0,-100.00,NNW,344,4.0,14.0,48,-99.99,,,-99.99,,2013-07-11 02:32:00,
2013-07-11 02:43:00,67.0,47.0,-100.00,NNW,344,4.0,14.0,48,-99.99,,,-99.99,,2013-07-11 02:43:00,
2013-07-11 02:53:00,67.0,47.0,-100.00,NNW,344,4.0,14.0,48,-99.99,,,-99.99,,2013-07-11 02:53:00,
2013-07-11 03:01:00,67.0,47.0,-100.00,NNW,344,4.0,14.0,48,-99.99,,,-99.99,,2013-07-11 03:01:00,
2013-07-11 03:11:00,67.0,48.0,-100.00,NNE,15,6.0,12.0,50,-99.99,,,-99.99,,2013-07-11 03:11:00,
2013-07-11 03:21:00,67.0,48.0,-100.00,NNE,15,6.0,12.0,50,-99.99,,,-99.99,,2013-07-11 03:21:00,
2013-07-11 03:33:00,66.0,47.0,-100.00,NNE,13,6.0,14.0,50,-99.99,,,-99.99,,2013-07-11 03:33:00,
2013-07-11 03:42:00,64.0,47.0,-100.00,North,7,5.0,13.0,55,-99.99,,,-99.99,,2013-07-11 03:42:00,
2013-07-11 03:52:00,64.0,47.0,-100.00,North,7,5.0,13.0,55,-99.99,,,-99.99,,2013-07-11 03:52:00,
2013-07-11 04:01:00,64.0,47.0,-100.00,North,7,5.0,13.0,55,-99.99,,,-99.99,,2013-07-11 04:01:00,
2013-07-11 04:11:00,62.0,50.0,-100.00,North,8,4.0,9.0,65,-99.99,,,-99.99,,2013-07-11 04:11:00,
2013-07-11 04:22:00,62.0,50.0,-100.00,North,8,4.0,9.0,65,-99.99,,,-99.99,,2013-07-11 04:22:00,
2013-07-11 04:32:00,62.0,50.0,-100.00,North,8,4.0,9.0,65,-99.99,,,-99.99,,2013-07-11 04:32:00,
2013-07-11 04:42:00,62.0,48.0,-100.00,North,357,2.0,11.0,60,-99.99,,,-99.99,,2013-07-11 04:42:00,
2013-07-11 04:53:00,62.0,48.0,-100.00,North,357,2.0,11.0,60,-99.99,,,-99.99,,2013-07-11 04:53:00,
2013-07-11 05:01:00,62.0,48.0,-100.00,North,357,2.0,11.0,60,-99.99,,,-99.99,,2013-07-11 05:01:00,
2013-07-11 05:12:00,62.0,48.0,-100.00,NNE,14,4.0,9.0,61,-99.99,,,-99.99,,2013-07-11 05:12:00,
2013-07-11 05:32:00,60.0,48.0,-100.00,NNE,20,3.0,10.0,65,-99.99,,,-99.99,,2013-07-11 05:32:00,
2013-07-11 05:43:00,60.0,48.0,-100.00,NNE,20,3.0,10.0,65,-99.99,,,-99.99,,2013-07-11 05:43:00,
2013-07-11 05:52:00,60.0,48.0,-100.00,NNE,20,3.0,10.0,65,-99.99,,,-99.99,,2013-07-11 05:52:00,
2013-07-11 06:01:00,60.0,48.0,-100.00,NNE,20,3.0,10.0,65,-99.99,,,-99.99,,2013-07-11 06:01:00,
2013-07-11 06:11:00,57.0,48.0,-100.00,NNE,28,6.0,10.0,71,-99.99,,,-99.99,,2013-07-11 06:11:00,
2013-07-11 06:32:00,57.0,48.0,-100.00,NNE,31,4.0,9.0,72,-99.99,,,-99.99,,2013-07-11 06:32:00,
2013-07-11 06:43:00,57.0,48.0,-100.00,NNE,31,4.0,9.0,72,-99.99,,,-99.99,,2013-07-11 06:43:00,
2013-07-11 06:52:00,55.0,47.0,-100.00,NNE,22,3.0,6.0,75,-99.99,,,-99.99,,2013-07-11 06:52:00,
2013-07-11 07:01:00,55.0,47.0,-100.00,NNE,22,3.0,6.0,75,-99.99,,,-99.99,,2013-07-11 07:01:00,
2013-07-11 07:12:00,54.0,46.0,-100.00,NNE,21,3.0,8.0,74,-99.99,,,-99.99,,2013-07-11 07:12:00,
2013-07-11 07:32:00,53.0,45.0,-100.00,NNE,33,4.0,6.0,73,-99.99,,,-99.99,,2013-07-11 07:32:00,
2013-07-11 07:45:00,53.0,45.0,-100.00,NE,37,4.0,6.0,74,-99.99,,,-99.99,,2013-07-11 07:45:00,
2013-07-11 07:53:00,53.0,45.0,-100.00,NE,42,6.0,11.0,73,-99.99,,,-99.99,,2013-07-11 07:53:00,
2013-07-11 08:02:00,53.0,45.0,-100.00,NE,42,6.0,11.0,73,-99.99,,,-99.99,,2013-07-11 08:02:00,
2013-07-11 08:22:00,53.0,43.0,-100.00,ENE,59,5.0,9.0,70,-99.99,,,-99.99,,2013-07-11 08:22:00,
2013-07-11 08:33:00,53.0,43.0,-100.00,ENE,59,5.0,9.0,70,-99.99,,,-99.99,,2013-07-11 08:33:00,
2013-07-11 08:42:00,53.0,43.0,-100.00,NE,49,6.0,11.0,69,-99.99,,,-99.99,,2013-07-11 08:42:00,
2013-07-11 08:53:00,53.0,43.0,-100.00,NE,49,6.0,11.0,69,-99.99,,,-99.99,,2013-07-11 08:53:00,
2013-07-11 09:02:00,53.0,43.0,-100.00,NE,49,6.0,11.0,69,-99.99,,,-99.99,,2013-07-11 09:02:00,
2013-07-11 09:12:00,53.0,41.0,-100.00,NE,41,5.0,9.0,64,-99.99,,,-99.99,,2013-07-11 09:12:00,
2013-07-11 09:21:00,53.0,41.0,-100.00,NE,41,5.0,9.0,64,-99.99,,,-99.99,,2013-07-11 09:21:00,
2013-07-11 09:33:00,53.0,42.0,-100.00,NE,43,6.0,10.0,65,-99.99,,,-99.99,,2013-07-11 09:33:00,
2013-07-11 09:43:00,53.0,42.0,-100.00,NE,50,5.0,10.0,67,-99.99,,,-99.99,,2013-07-11 09:43:00,
2013-07-11 11:02:00,55.0,44.0,-100.00,NE,52,2.0,8.0,67,-99.99,,,-99.99,,2013-07-11 11:02:00,
2013-07-11 11:12:00,55.0,45.0,-100.00,NNE,27,2.0,6.0,69,-99.99,,,-99.99,,2013-07-11 11:12:00,
2013-07-11 11:22:00,54.0,45.0,-100.00,NE,50,3.0,5.0,71,-99.99,,,-99.99,,2013-07-11 11:22:00,
2013-07-11 11:32:00,54.0,45.0,-100.00,NE,50,3.0,5.0,71,-99.99,,,-99.99,,2013-07-11 11:32:00,
2013-07-11 11:43:00,54.0,46.0,-100.00,NE,55,5.0,9.0,73,-99.99,,,-99.99,,2013-07-11 11:43:00,
2013-07-11 11:53:00,54.0,46.0,-100.00,NE,55,5.0,9.0,73,-99.99,,,-99.99,,2013-07-11 11:53:00,
2013-07-11 12:01:00,54.0,46.0,-100.00,NE,55,5.0,9.0,73,-99.99,,,-99.99,,2013-07-11 12:01:00,
2013-07-11 12:12:00,54.0,46.0,-100.00,NE,55,5.0,9.0,73,-99.99,,,-99.99,,2013-07-11 12:12:00,
2013-07-11 12:22:00,53.0,47.0,-100.00,NE,51,6.0,10.0,79,-99.99,,,-99.99,,2013-07-11 12:22:00,
2013-07-11 12:33:00,53.0,47.0,-100.00,NE,51,6.0,10.0,79,-99.99,,,-99.99,,2013-07-11 12:33:00,
2013-07-11 12:43:00,53.0,47.0,-100.00,NE,51,6.0,10.0,79,-99.99,,,-99.99,,2013-07-11 12:43:00,
2013-07-11 12:56:00,53.0,47.0,-100.00,NE,51,6.0,10.0,79,-99.99,,,-99.99,,2013-07-11 12:56:00,
2013-07-11 13:01:00,53.0,47.0,-100.00,NE,51,6.0,10.0,79,-99.99,,,-99.99,,2013-07-11 13:01:00,
2013-07-11 13:33:00,54.0,45.0,-100.00,NNE,30,1.0,4.0,72,-99.99,,,-99.99,,2013-07-11 13:33:00,
2013-07-11 13:44:00,53.0,45.0,-100.00,NNE,33,2.0,3.0,74,-99.99,,,-99.99,,2013-07-11 13:44:00,
2013-07-11 13:52:00,53.0,45.0,-100.00,NNE,33,2.0,3.0,74,-99.99,,,-99.99,,2013-07-11 13:52:00,
2013-07-11 14:02:00,52.0,45.0,-100.00,NNE,17,2.0,5.0,78,-99.99,,,-99.99,,2013-07-11 14:02:00,
2013-07-11 14:12:00,52.0,46.0,-100.00,NE,35,3.0,5.0,79,-99.99,,,-99.99,,2013-07-11 14:12:00,
2013-07-11 14:44:00,53.0,45.0,-100.00,ENE,74,2.0,4.0,73,-99.99,,,-99.99,,2013-07-11 14:44:00,
2013-07-11 14:53:00,55.0,46.0,-100.00,NE,52,1.0,3.0,71,-99.99,,,-99.99,,2013-07-11 14:53:00,
2013-07-11 15:02:00,55.0,46.0,-100.00,NE,52,1.0,3.0,71,-99.99,,,-99.99,,2013-07-11 15:02:00,
2013-07-11 15:12:00,55.0,45.0,-100.00,SSW,197,0.0,1.0,68,-99.99,,,-99.99,,2013-07-11 15:12:00,
2013-07-11 15:22:00,55.0,45.0,-100.00,SSW,197,0.0,1.0,68,-99.99,,,-99.99,,2013-07-11 15:22:00,
2013-07-11 15:34:00,55.0,45.0,-100.00,SSW,197,0.0,1.0,68,-99.99,,,-99.99,,2013-07-11 15:34:00,
2013-07-11 15:44:00,53.0,45.0,-100.00,SSW,209,0.0,2.0,73,-99.99,,,-99.99,,2013-07-11 15:44:00,
2013-07-11 15:53:00,54.0,45.0,-100.00,SW,221,0.0,2.0,71,-99.99,,,-99.99,,2013-07-11 15:53:00,
2013-07-11 16:03:00,54.0,45.0,-100.00,SW,221,0.0,2.0,71,-99.99,,,-99.99,,2013-07-11 16:03:00,
2013-07-11 16:12:00,53.0,45.0,-100.00,SSW,201,1.0,3.0,74,-99.99,,,-99.99,,2013-07-11 16:12:00,
2013-07-11 16:22:00,54.0,46.0,-100.00,SE,133,0.0,2.0,74,-99.99,,,-99.99,,2013-07-11 16:22:00,
2013-07-11 16:33:00,54.0,46.0,-100.00,SE,133,0.0,2.0,74,-99.99,,,-99.99,,2013-07-11 16:33:00,
2013-07-11 16:44:00,58.0,46.0,-100.00,WSW,240,0.0,2.0,64,-99.99,,,-99.99,,2013-07-11 16:44:00,
2013-07-11 16:53:00,55.0,45.0,-100.00,SSW,197,0.0,2.0,69,-99.99,,,-99.99,,2013-07-11 16:53:00,
2013-07-11 17:02:00,55.0,45.0,-100.00,SSW,197,0.0,2.0,69,-99.99,,,-99.99,,2013-07-11 17:02:00,
2013-07-11 17:13:00,55.0,45.0,-100.00,SSW,197,0.0,2.0,69,-99.99,,,-99.99,,2013-07-11 17:13:00,
2013-07-11 17:22:00,55.0,45.0,-100.00,SSW,197,0.0,2.0,69,-99.99,,,-99.99,,2013-07-11 17:22:00,
2013-07-11 17:34:00,55.0,47.0,-100.00,WNW,287,1.0,4.0,75,-99.99,,,-99.99,,2013-07-11 17:34:00,
2013-07-11 17:53:00,55.0,48.0,-100.00,West,270,2.0,4.0,77,-99.99,,,-99.99,,2013-07-11 17:53:00,
2013-07-11 18:03:00,55.0,48.0,-100.00,West,270,2.0,4.0,77,-99.99,,,-99.99,,2013-07-11 18:03:00,
2013-07-11 18:36:00,56.0,50.0,-100.00,WSW,257,0.0,6.0,79,-99.99,,,-99.99,,2013-07-11 18:36:00,
2013-07-11 18:47:00,58.0,49.0,-100.00,NNW,338,0.0,4.0,72,-99.99,,,-99.99,,2013-07-11 18:47:00,
2013-07-11 18:55:00,58.0,49.0,-100.00,NNW,338,0.0,4.0,72,-99.99,,,-99.99,,2013-07-11 18:55:00,
2013-07-11 19:12:00,59.0,50.0,-100.00,WNW,303,1.0,8.0,71,-99.99,,,-99.99,,2013-07-11 19:12:00,
2013-07-11 19:35:00,62.0,49.0,-100.00,NW,312,1.0,4.0,62,-99.99,,,-99.99,,2013-07-11 19:35:00,
2013-07-11 19:43:00,62.0,49.0,-100.00,NW,312,1.0,4.0,62,-99.99,,,-99.99,,2013-07-11 19:43:00,
2013-07-11 19:52:00,62.0,49.0,-100.00,NW,312,1.0,4.0,62,-99.99,,,-99.99,,2013-07-11 19:52:00,
2013-07-11 20:02:00,61.0,50.0,-100.00,WSW,257,1.0,6.0,66,-99.99,,,-99.99,,2013-07-11 20:02:00,
2013-07-11 20:12:00,61.0,50.0,-100.00,WSW,257,1.0,6.0,66,-99.99,,,-99.99,,2013-07-11 20:12:00,
2013-07-11 20:34:00,61.0,50.0,-100.00,NNE,25,1.0,8.0,66,-99.99,,,-99.99,,2013-07-11 20:34:00,
2013-07-11 20:48:00,61.0,50.0,-100.00,NNE,25,1.0,8.0,66,-99.99,,,-99.99,,2013-07-11 20:48:00,
2013-07-11 21:02:00,60.0,49.0,-100.00,West,279,4.0,9.0,68,-99.99,,,-99.99,,2013-07-11 21:02:00,
2013-07-11 21:13:00,62.0,51.0,-100.00,West,275,4.0,10.0,67,-99.99,,,-99.99,,2013-07-11 21:13:00,
2013-07-11 21:22:00,59.0,48.0,-100.00,North,359,4.0,10.0,67,-99.99,,,-99.99,,2013-07-11 21:22:00,
2013-07-11 21:33:00,59.0,48.0,-100.00,North,359,4.0,10.0,67,-99.99,,,-99.99,,2013-07-11 21:33:00,
2013-07-11 21:44:00,59.0,48.0,-100.00,North,359,4.0,10.0,67,-99.99,,,-99.99,,2013-07-11 21:44:00,
2013-07-11 21:52:00,59.0,48.0,-100.00,North,359,4.0,10.0,67,-99.99,,,-99.99,,2013-07-11 21:52:00,
2013-07-11 22:02:00,59.0,48.0,-100.00,North,359,4.0,10.0,67,-99.99,,,-99.99,,2013-07-11 22:02:00,
2013-07-11 22:54:00,65.0,49.0,-100.00,NW,325,2.0,11.0,56,-99.99,,,-99.99,,2013-07-11 22:54:00,
2013-07-11 23:01:00,70.0,49.0,-100.00,NNW,346,1.0,8.0,47,-99.99,,,-99.99,,2013-07-11 23:01:00,
2013-07-11 23:11:00,70.0,49.0,-100.00,NNW,346,1.0,8.0,47,-99.99,,,-99.99,,2013-07-11 23:11:00,
2013-07-11 23:33:00,61.0,50.0,-100.00,WSW,250,1.0,10.0,68,-99.99,,,-99.99,,2013-07-11 23:33:00,
2013-07-11 23:47:00,60.0,50.0,-100.00,NNW,343,0.0,8.0,70,-99.99,,,-99.99,,2013-07-11 23:47:00,
2013-07-11 23:56:00,60.0,50.0,-100.00,NNW,343,0.0,8.0,70,-99.99,,,-99.99,,2013-07-11 23:56:00,